createdAt,value
2022-12-14T00:01:18.239Z,100399.75
2022-12-14T00:03:45.695Z,100399.84
2022-12-14T00:06:20.415Z,100390.56
2022-12-14T00:08:48.527Z,100392.09
2022-12-14T00:11:15.320Z,100393.09
2022-12-14T00:13:42.725Z,100394.03
2022-12-14T00:16:14.776Z,100391.28
2022-12-14T00:18:41.754Z,100387.97
2022-12-14T00:21:12.665Z,100390.16
2022-12-14T00:23:40.806Z,100382.78
2022-12-14T00:26:08.897Z,100382.13
2022-12-14T00:28:36.173Z,100382.25
2022-12-14T00:31:02.876Z,100378.09
2022-12-14T00:33:29.443Z,100376.31
2022-12-14T00:35:55.820Z,100379.72
2022-12-14T00:38:22.135Z,100375.53
2022-12-14T00:40:48.443Z,100377.41
2022-12-14T00:43:14.728Z,100374.94
2022-12-14T00:45:44.383Z,100367.38
2022-12-14T00:48:11.903Z,100375.47
2022-12-14T00:50:38.568Z,100368.78
2022-12-14T00:53:05.870Z,100367.03
2022-12-14T00:55:42.838Z,100371.25
2022-12-14T00:58:11.311Z,100365.25
2022-12-14T01:00:38.430Z,100366.19
2022-12-14T01:03:05.426Z,100368.84
2022-12-14T01:05:34.351Z,100369.88
2022-12-14T01:08:01.099Z,100367.94
2022-12-14T01:10:27.569Z,100376.19
2022-12-14T01:12:53.878Z,100371.81
2022-12-14T01:15:20.541Z,100367.34
2022-12-14T01:17:46.815Z,100368.28
2022-12-14T01:20:13.254Z,100369.88
2022-12-14T01:22:39.641Z,100373.09
2022-12-14T01:25:06.317Z,100367.13
2022-12-14T01:27:32.664Z,100364.47
2022-12-14T01:29:58.934Z,100358.41
2022-12-14T01:32:25.267Z,100350.72
2022-12-14T01:34:51.564Z,100346.78
2022-12-14T01:37:17.883Z,100346.84
2022-12-14T01:39:44.208Z,100340.72
2022-12-14T01:42:15.629Z,100336.63
2022-12-14T01:44:44.958Z,100341.84
2022-12-14T01:47:34.240Z,100327.31
2022-12-14T01:50:22.261Z,100327.22
2022-12-14T01:52:53.380Z,100325.91
2022-12-14T01:55:27.240Z,100317.56
2022-12-14T01:58:00.933Z,100320.09
2022-12-14T02:00:27.448Z,100321.69
2022-12-14T02:03:05.913Z,100323.44
2022-12-14T02:05:35.385Z,100320.03
2022-12-14T02:08:02.905Z,100316.63
2022-12-14T02:10:31.383Z,100313.81
2022-12-14T02:13:14.665Z,100318.88
2022-12-14T02:15:41.999Z,100319.41
2022-12-14T02:18:11.998Z,100326.09
2022-12-14T02:21:06.974Z,100321.13
2022-12-14T02:24:11.172Z,100319.22
2022-12-14T02:27:05.525Z,100317.59
2022-12-14T02:29:43.743Z,100318.25
2022-12-14T02:32:29.922Z,100325.84
2022-12-14T02:35:14.888Z,100310.50
2022-12-14T02:38:30.369Z,100316.38
2022-12-14T02:41:38.131Z,100311.09
2022-12-14T02:44:25.336Z,100306.91
2022-12-14T02:47:09.724Z,100299.84
2022-12-14T02:49:48.926Z,100298.25
2022-12-14T02:52:30.767Z,100292.38
2022-12-14T02:55:25.092Z,100289.09
2022-12-14T02:58:20.842Z,100287.97
2022-12-14T03:00:49.027Z,100289.78
2022-12-14T03:03:15.658Z,100276.97
2022-12-14T03:05:42.087Z,100277.88
2022-12-14T03:08:11.940Z,100277.69
2022-12-14T03:10:52.774Z,100265.56
2022-12-14T03:13:25.355Z,100268.16
2022-12-14T03:16:00.690Z,100267.16
2022-12-14T03:18:35.349Z,100263.81
2022-12-14T03:21:05.381Z,100260.31
2022-12-14T03:23:35.766Z,100267.16
2022-12-14T03:26:15.761Z,100265.63
2022-12-14T03:28:53.043Z,100270.03
2022-12-14T03:31:28.281Z,100256.22
2022-12-14T03:33:58.174Z,100260.34
2022-12-14T03:36:42.209Z,100249.94
2022-12-14T03:39:12.263Z,100249.03
2022-12-14T03:42:08.215Z,100249.69
2022-12-14T03:44:50.986Z,100247.81
2022-12-14T03:47:45.015Z,100239.69
2022-12-14T03:50:20.817Z,100238.78
2022-12-14T03:52:59.091Z,100231.69
2022-12-14T03:55:35.497Z,100223.09
2022-12-14T03:58:18.722Z,100225.41
2022-12-14T04:01:00.800Z,100224.28
2022-12-14T04:03:41.473Z,100223.06
2022-12-14T04:06:26.124Z,100226.34
2022-12-14T04:09:13.733Z,100222.19
2022-12-14T04:12:05.674Z,100221.44
2022-12-14T04:14:55.806Z,100225.72
2022-12-14T04:17:47.002Z,100221.44
2022-12-14T04:20:19.987Z,100223.59
2022-12-14T04:23:04.100Z,100219.06
2022-12-14T04:25:55.718Z,100213.47
2022-12-14T04:29:29.465Z,100210.72
2022-12-14T04:32:09.615Z,100212.34
2022-12-14T04:34:38.902Z,100207.13
2022-12-14T04:37:11.970Z,100210.81
2022-12-14T04:39:55.678Z,100210.81
2022-12-14T04:42:36.041Z,100203.34
2022-12-14T04:45:11.677Z,100199.50
2022-12-14T04:47:44.814Z,100203.16
2022-12-14T04:50:35.918Z,100189.38
2022-12-14T04:53:13.840Z,100194.22
2022-12-14T04:55:49.353Z,100190.59
2022-12-14T04:58:28.258Z,100182.50
2022-12-14T05:01:13.331Z,100185.16
2022-12-14T05:04:01.540Z,100189.97
2022-12-14T05:07:12.860Z,100181.78
2022-12-14T05:09:51.028Z,100178.09
2022-12-14T05:12:23.378Z,100173.38
2022-12-14T05:14:58.846Z,100171.56
2022-12-14T05:17:25.124Z,100178.38
2022-12-14T05:19:51.453Z,100175.72
2022-12-14T05:22:18.276Z,100173.09
2022-12-14T05:24:44.658Z,100170.66
2022-12-14T05:27:10.921Z,100177.03
2022-12-14T05:29:37.302Z,100173.44
2022-12-14T05:32:04.626Z,100179.28
2022-12-14T05:34:31.158Z,100178.34
2022-12-14T05:36:58.067Z,100164.13
2022-12-14T05:39:24.367Z,100165.16
2022-12-14T05:41:50.877Z,100161.00
2022-12-14T05:44:17.184Z,100158.25
2022-12-14T05:46:43.621Z,100167.50
2022-12-14T05:49:10.615Z,100154.63
2022-12-14T05:51:36.917Z,100153.25
2022-12-14T05:54:03.764Z,100155.84
2022-12-14T05:56:30.093Z,100151.31
2022-12-14T05:58:56.629Z,100156.38
2022-12-14T06:01:23.123Z,100153.03
2022-12-14T06:03:52.429Z,100143.13
2022-12-14T06:06:19.176Z,100150.06
2022-12-14T06:08:46.176Z,100149.56
2022-12-14T06:11:18.370Z,100147.13
2022-12-14T06:13:45.498Z,100147.97
2022-12-14T06:16:19.788Z,100145.72
2022-12-14T06:18:54.096Z,100144.63
2022-12-14T06:21:23.647Z,100141.19
2022-12-14T06:23:50.027Z,100133.38
2022-12-14T06:26:17.175Z,100133.34
2022-12-14T06:28:44.239Z,100131.31
2022-12-14T06:31:22.326Z,100131.41
2022-12-14T06:33:48.916Z,100139.25
2022-12-14T06:36:23.804Z,100138.41
2022-12-14T06:38:54.376Z,100135.47
2022-12-14T06:41:21.338Z,100138.91
2022-12-14T06:43:49.535Z,100137.31
2022-12-14T06:46:19.163Z,100130.41
2022-12-14T06:48:53.159Z,100136.50
2022-12-14T06:51:20.764Z,100139.44
2022-12-14T06:53:51.610Z,100137.38
2022-12-14T06:56:19.321Z,100133.69
2022-12-14T06:58:45.893Z,100140.47
2022-12-14T07:01:20.982Z,100132.75
2022-12-14T07:03:50.479Z,100129.41
2022-12-14T07:06:17.449Z,100132.75
2022-12-14T07:08:43.939Z,100130.22
2022-12-14T07:11:12.828Z,100125.38
2022-12-14T07:13:39.842Z,100122.00
2022-12-14T07:16:07.993Z,100130.34
2022-12-14T07:18:34.640Z,100132.81
2022-12-14T07:21:04.080Z,100128.34
2022-12-14T07:23:33.195Z,100120.63
2022-12-14T07:26:09.128Z,100127.47
2022-12-14T07:28:39.127Z,100119.75
2022-12-14T07:31:08.688Z,100119.81
2022-12-14T07:33:35.221Z,100109.81
2022-12-14T07:36:03.895Z,100115.69
2022-12-14T07:38:30.334Z,100112.44
2022-12-14T07:41:09.751Z,100114.31
2022-12-14T07:43:37.569Z,100118.38
2022-12-14T07:46:06.745Z,100120.84
2022-12-14T07:48:33.795Z,100119.22
2022-12-14T07:51:09.221Z,100126.19
2022-12-14T07:53:36.770Z,100118.75
2022-12-14T07:56:08.800Z,100119.41
2022-12-14T07:58:36.356Z,100118.03
2022-12-14T08:01:24.307Z,100106.47
2022-12-14T08:03:53.244Z,100104.84
2022-12-14T08:06:21.872Z,100106.50
2022-12-14T08:08:49.221Z,100114.31
2022-12-14T08:11:18.184Z,100112.78
2022-12-14T08:13:44.644Z,100113.72
2022-12-14T08:16:13.874Z,100113.19
2022-12-14T08:18:41.071Z,100105.75
2022-12-14T08:21:09.297Z,100106.81
2022-12-14T08:23:36.033Z,100111.16
2022-12-14T08:26:04.576Z,100103.59
2022-12-14T08:28:32.301Z,100101.09
2022-12-14T08:31:05.175Z,100100.44
2022-12-14T08:33:33.949Z,100102.41
2022-12-14T08:36:10.860Z,100098.56
2022-12-14T08:38:37.829Z,100099.06
2022-12-14T08:41:12.816Z,100102.69
2022-12-14T08:43:40.342Z,100096.81
2022-12-14T08:46:09.217Z,100095.78
2022-12-14T08:48:35.667Z,100095.91
2022-12-14T08:51:08.029Z,100089.97
2022-12-14T08:53:35.232Z,100081.97
2022-12-14T08:56:06.428Z,100086.44
2022-12-14T08:58:34.464Z,100079.22
2022-12-14T09:01:03.272Z,100079.53
2022-12-14T09:03:30.105Z,100071.63
2022-12-14T09:05:56.689Z,100070.41
2022-12-14T09:08:23.033Z,100068.03
2022-12-14T09:10:52.676Z,100069.09
2022-12-14T09:13:19.027Z,100068.59
2022-12-14T09:15:45.326Z,100067.41
2022-12-14T09:18:11.748Z,100072.56
2022-12-14T09:20:38.079Z,100073.72
2022-12-14T09:23:04.356Z,100068.13
2022-12-14T09:25:30.735Z,100058.13
2022-12-14T09:27:57.099Z,100063.31
2022-12-14T09:30:26.960Z,100060.19
2022-12-14T09:32:53.565Z,100056.09
2022-12-14T09:35:19.906Z,100056.94
2022-12-14T09:37:46.815Z,100053.88
2022-12-14T09:40:13.519Z,100048.88
2022-12-14T09:42:57.942Z,100051.69
2022-12-14T09:45:35.008Z,100045.97
2022-12-14T09:48:18.241Z,100052.03
2022-12-14T09:50:49.562Z,100049.56
2022-12-14T09:53:17.034Z,100047.34
2022-12-14T09:55:48.623Z,100055.25
2022-12-14T09:58:20.671Z,100048.31
2022-12-14T10:01:19.312Z,100046.84
2022-12-14T10:04:31.297Z,100045.09
2022-12-14T10:07:17.648Z,100040.88
2022-12-14T10:10:01.152Z,100037.59
2022-12-14T10:13:04.254Z,100034.66
2022-12-14T10:15:53.878Z,100032.22
2022-12-14T10:18:49.933Z,100026.63
2022-12-14T10:21:13.965Z,100024.94
2022-12-14T10:24:04.200Z,100024.28
2022-12-14T10:26:38.659Z,100016.84
2022-12-14T10:29:20.006Z,100021.19
2022-12-14T10:31:52.393Z,100003.72
2022-12-14T10:34:22.464Z,100018.34
2022-12-14T10:37:12.254Z,100001.44
2022-12-14T10:40:17.464Z,99994.22
2022-12-14T10:43:15.143Z,99994.56
2022-12-14T10:46:00.294Z,99993.88
2022-12-14T10:48:29.993Z,99989.00
2022-12-14T10:51:03.482Z,99993.13
2022-12-14T10:53:41.111Z,99989.84
2022-12-14T10:56:20.781Z,99986.63
2022-12-14T10:59:12.827Z,99990.41
2022-12-14T11:01:39.305Z,99982.94
2022-12-14T11:04:14.786Z,99981.38
2022-12-14T11:06:41.165Z,99978.06
2022-12-14T11:09:21.219Z,99973.75
2022-12-14T11:11:47.669Z,99979.94
2022-12-14T11:14:21.913Z,99977.38
2022-12-14T11:16:48.396Z,99962.34
2022-12-14T11:19:17.638Z,99963.16
2022-12-14T11:21:44.437Z,99962.34
2022-12-14T11:24:25.620Z,99964.94
2022-12-14T11:27:01.051Z,99965.22
2022-12-14T11:29:39.213Z,99966.91
2022-12-14T11:32:06.740Z,99961.06
2022-12-14T11:34:40.146Z,99970.75
2022-12-14T11:37:31.277Z,99969.91
2022-12-14T11:40:00.767Z,99966.41
2022-12-14T11:42:28.330Z,99968.25
2022-12-14T11:44:55.169Z,99964.13
2022-12-14T11:47:24.065Z,99960.97
2022-12-14T11:49:54.967Z,99955.97
2022-12-14T11:52:42.219Z,99954.38
2022-12-14T11:55:26.522Z,99954.44
2022-12-14T11:57:53.436Z,99949.53
2022-12-14T12:00:19.739Z,99948.06
2022-12-14T12:03:02.540Z,99948.16
2022-12-14T12:05:34.040Z,99943.16
2022-12-14T12:08:07.252Z,99943.47
2022-12-14T12:10:41.359Z,99940.84
2022-12-14T12:13:21.127Z,99944.22
2022-12-14T12:15:53.869Z,99940.94
2022-12-14T12:18:53.972Z,99944.59
2022-12-14T12:21:36.813Z,99939.53
2022-12-14T12:24:06.937Z,99939.78
2022-12-14T12:26:51.909Z,99939.91
2022-12-14T12:29:45.940Z,99931.31
2022-12-14T12:32:34.437Z,99925.53
2022-12-14T12:35:14.520Z,99923.06
2022-12-14T12:37:45.178Z,99925.69
2022-12-14T12:40:22.766Z,99924.91
2022-12-14T12:43:11.113Z,99919.88
2022-12-14T12:45:43.998Z,99917.50
2022-12-14T12:48:13.069Z,99911.69
2022-12-14T12:50:44.750Z,99913.47
2022-12-14T12:53:25.784Z,99905.88
2022-12-14T12:55:55.263Z,99912.66
2022-12-14T12:58:33.968Z,99910.78
2022-12-14T13:01:32.639Z,99916.84
2022-12-14T13:04:05.487Z,99905.88
2022-12-14T13:06:40.426Z,99908.44
2022-12-14T13:09:29.483Z,99905.97
2022-12-14T13:11:57.660Z,99904.09
2022-12-14T13:14:31.150Z,99904.03
2022-12-14T13:16:59.565Z,99899.72
2022-12-14T13:19:49.868Z,99893.84
2022-12-14T13:22:24.529Z,99892.94
2022-12-14T13:24:57.228Z,99891.44
2022-12-14T13:27:37.843Z,99894.97
2022-12-14T13:30:33.770Z,99883.66
2022-12-14T13:33:24.122Z,99886.97
2022-12-14T13:36:01.229Z,99885.22
2022-12-14T13:39:14.291Z,99882.78
2022-12-14T13:41:55.980Z,99876.78
2022-12-14T13:44:44.152Z,99879.91
2022-12-14T13:47:19.769Z,99876.44
2022-12-14T13:50:33.764Z,99874.94
2022-12-14T13:52:44.877Z,99874.09
2022-12-14T13:55:32.225Z,99876.56
2022-12-14T13:58:16.980Z,99878.34
2022-12-14T14:00:55.808Z,99883.31
2022-12-14T14:03:34.201Z,99879.00
2022-12-14T14:06:12.989Z,99884.94
2022-12-14T14:08:42.766Z,99882.47
2022-12-14T14:11:36.296Z,99889.38
2022-12-14T14:14:28.657Z,99878.06
2022-12-14T14:17:03.330Z,99888.09
2022-12-14T14:19:37.585Z,99887.16
2022-12-14T14:22:26.204Z,99885.41
2022-12-14T14:25:02.062Z,99881.78
2022-12-14T14:27:38.624Z,99881.59
2022-12-14T14:30:37.706Z,99891.75
2022-12-14T14:33:48.602Z,99885.66
2022-12-14T14:36:32.947Z,99885.38
2022-12-14T14:39:01.948Z,99891.22
2022-12-14T14:41:43.395Z,99890.22
2022-12-14T14:44:22.968Z,99878.78
2022-12-14T14:46:50.306Z,99881.31
2022-12-14T14:49:30.510Z,99881.09
2022-12-14T14:51:57.285Z,99877.44
2022-12-14T14:57:54.168Z,99883.31
2022-12-14T15:00:20.527Z,99881.63
2022-12-14T15:02:49.639Z,99878.59
2022-12-14T15:08:18.370Z,99892.72
2022-12-14T15:10:46.410Z,99890.78
2022-12-14T15:13:24.140Z,99892.22
2022-12-14T15:15:52.943Z,99892.78
2022-12-14T15:18:26.475Z,99896.28
2022-12-14T15:21:06.568Z,99895.47
2022-12-14T15:23:45.272Z,99896.16
2022-12-14T15:26:21.303Z,99895.53
2022-12-14T15:28:55.769Z,99898.00
2022-12-14T15:31:34.410Z,99902.03
2022-12-14T15:34:02.747Z,99901.75
2022-12-14T15:36:31.943Z,99902.53
2022-12-14T15:38:58.936Z,99907.50
2022-12-14T15:41:32.170Z,99906.84
2022-12-14T15:44:00.214Z,99900.06
2022-12-14T15:46:28.490Z,99901.56
2022-12-14T15:48:59.976Z,99903.00
2022-12-14T15:51:31.626Z,99906.47
2022-12-14T15:54:00.851Z,99902.97
2022-12-14T15:56:35.164Z,99901.09
2022-12-14T15:59:05.186Z,99908.47
2022-12-14T16:01:37.732Z,99911.63
2022-12-14T16:04:09.759Z,99903.09
2022-12-14T16:06:40.549Z,99909.84
2022-12-14T16:09:31.470Z,99909.47
2022-12-14T16:12:04.599Z,99902.75
2022-12-14T16:14:45.285Z,99902.50
2022-12-14T16:17:14.341Z,99912.91
2022-12-14T16:19:58.608Z,99908.66
2022-12-14T16:22:29.283Z,99912.88
2022-12-14T16:25:07.709Z,99911.19
2022-12-14T16:27:41.258Z,99902.63
2022-12-14T16:30:17.375Z,99909.41
2022-12-14T16:32:45.212Z,99899.47
2022-12-14T16:35:23.028Z,99900.34
2022-12-14T16:37:52.495Z,99903.69
2022-12-14T16:40:25.021Z,99904.28
2022-12-14T16:42:51.359Z,99906.19
2022-12-14T16:45:43.555Z,99906.94
2022-12-14T16:48:19.643Z,99900.84
2022-12-14T16:50:56.945Z,99903.38
2022-12-14T16:53:31.385Z,99904.09
2022-12-14T16:56:04.376Z,99900.69
2022-12-14T16:58:31.051Z,99897.88
2022-12-14T17:01:09.309Z,99894.50
2022-12-14T17:03:37.641Z,99899.59
2022-12-14T17:06:06.606Z,99901.22
2022-12-14T17:08:33.693Z,99894.19
2022-12-14T17:11:02.006Z,99898.38
2022-12-14T17:13:28.793Z,99901.44
2022-12-14T17:16:05.677Z,99899.66
2022-12-14T17:18:40.288Z,99898.91
2022-12-14T17:21:08.461Z,99896.50
2022-12-14T17:23:38.587Z,99884.69
2022-12-14T17:26:05.120Z,99887.19
2022-12-14T17:28:34.469Z,99883.94
2022-12-14T17:31:03.008Z,99876.34
2022-12-14T17:33:31.850Z,99886.56
2022-12-14T17:35:58.812Z,99887.41
2022-12-14T17:38:26.025Z,99894.09
2022-12-14T17:40:53.801Z,99888.34
2022-12-14T17:43:24.514Z,99886.38
2022-12-14T17:45:51.034Z,99891.56
2022-12-14T17:48:17.642Z,99900.56
2022-12-14T17:50:46.677Z,99897.97
2022-12-14T17:53:19.047Z,99895.31
2022-12-14T17:55:45.387Z,99896.19
2022-12-14T17:58:11.766Z,99898.63
2022-12-14T18:00:57.907Z,99896.78
2022-12-14T18:03:24.658Z,99893.34
2022-12-14T18:05:52.361Z,99892.34
2022-12-14T18:08:20.302Z,99902.41
2022-12-14T18:10:49.596Z,99903.25
2022-12-14T18:13:15.880Z,99905.81
2022-12-14T18:15:49.716Z,99905.69
2022-12-14T18:18:20.657Z,99910.50
2022-12-14T18:20:52.738Z,99907.16
2022-12-14T18:23:21.683Z,99907.63
2022-12-14T18:25:50.649Z,99906.69
2022-12-14T18:28:17.471Z,99909.22
2022-12-14T18:30:50.702Z,99917.13
2022-12-14T18:33:20.178Z,99915.28
2022-12-14T18:35:47.618Z,99914.53
2022-12-14T18:38:14.032Z,99906.06
2022-12-14T18:40:42.456Z,99901.72
2022-12-14T18:43:16.248Z,99900.59
2022-12-14T18:45:42.583Z,99898.69
2022-12-14T18:48:08.940Z,99897.16
2022-12-14T18:50:40.984Z,99898.69
2022-12-14T18:53:16.484Z,99894.50
2022-12-14T18:55:43.397Z,99891.28
2022-12-14T18:58:16.375Z,99892.19
2022-12-14T19:00:43.214Z,99896.22
2022-12-14T19:03:09.759Z,99904.56
2022-12-14T19:05:36.608Z,99900.25
2022-12-14T19:08:02.952Z,99902.22
2022-12-14T19:10:31.815Z,99903.72
2022-12-14T19:12:58.406Z,99906.25
2022-12-14T19:15:34.099Z,99907.72
2022-12-14T19:18:01.210Z,99902.19
2022-12-14T19:20:28.996Z,99911.59
2022-12-14T19:22:55.336Z,99918.09
2022-12-14T19:25:22.262Z,99911.50
2022-12-14T19:30:35.944Z,99915.22
2022-12-14T19:33:02.399Z,99916.13
2022-12-14T19:35:28.690Z,99922.88
2022-12-14T19:37:54.962Z,99919.53
2022-12-14T19:40:21.365Z,99922.00
2022-12-14T19:42:47.741Z,99931.72
2022-12-14T19:45:14.993Z,99934.25
2022-12-14T19:47:43.835Z,99931.88
2022-12-14T19:50:13.028Z,99933.44
2022-12-14T19:52:39.309Z,99936.81
2022-12-14T19:55:05.798Z,99930.03
2022-12-14T19:57:32.099Z,99937.75
2022-12-14T19:59:59.899Z,99933.50
2022-12-14T20:02:26.632Z,99921.50
2022-12-14T20:04:53.120Z,99926.59
2022-12-14T20:07:19.685Z,99933.31
2022-12-14T20:09:46.026Z,99921.22
2022-12-14T20:12:12.539Z,99924.75
2022-12-14T20:14:42.575Z,99917.84
2022-12-14T20:17:10.635Z,99921.03
2022-12-14T20:19:38.843Z,99915.97
2022-12-14T20:22:06.187Z,99921.78
2022-12-14T20:24:32.516Z,99921.91
2022-12-14T20:26:59.241Z,99918.09
2022-12-14T20:29:25.737Z,99911.38
2022-12-14T20:31:52.368Z,99916.34
2022-12-14T20:34:18.656Z,99907.13
2022-12-14T20:36:45.017Z,99910.50
2022-12-14T20:39:11.347Z,99911.22
2022-12-14T20:41:38.156Z,99908.47
2022-12-14T20:44:10.473Z,99904.13
2022-12-14T20:46:39.108Z,99899.75
2022-12-14T20:49:09.146Z,99901.28
2022-12-14T20:51:37.382Z,99912.78
2022-12-14T20:54:05.904Z,99910.06
2022-12-14T20:56:33.962Z,99908.50
2022-12-14T20:59:00.701Z,99909.50
2022-12-14T21:01:27.542Z,99912.09
2022-12-14T21:03:54.194Z,99911.28
2022-12-14T21:06:22.546Z,99916.31
2022-12-14T21:09:01.987Z,99904.38
2022-12-14T21:11:48.251Z,99904.44
2022-12-14T21:14:15.198Z,99912.03
2022-12-14T21:16:42.546Z,99901.91
2022-12-14T21:19:11.481Z,99898.50
2022-12-14T21:21:37.828Z,99903.78
2022-12-14T21:24:04.227Z,99906.22
2022-12-14T21:26:30.571Z,99902.97
2022-12-14T21:28:56.902Z,99908.88
2022-12-14T21:31:23.404Z,99910.63
2022-12-14T21:33:50.179Z,99904.75
2022-12-14T21:36:16.661Z,99912.97
2022-12-14T21:38:43.033Z,99919.56
2022-12-14T21:41:30.097Z,99917.72
2022-12-14T21:43:58.368Z,99920.31
2022-12-14T21:46:29.189Z,99917.66
2022-12-14T21:48:55.775Z,99922.09
2022-12-14T21:51:22.182Z,99918.59
2022-12-14T21:54:00.610Z,99922.97
2022-12-14T21:56:56.770Z,99928.75
2022-12-14T21:59:28.398Z,99922.16
2022-12-14T22:01:57.405Z,99928.72
2022-12-14T22:04:25.261Z,99923.53
2022-12-14T22:06:51.839Z,99924.31
2022-12-14T22:09:19.396Z,99925.22
2022-12-14T22:11:46.717Z,99927.59
2022-12-14T22:14:13.982Z,99929.94
2022-12-14T22:16:40.652Z,99933.16
2022-12-14T22:19:09.467Z,99924.63
2022-12-14T22:21:39.072Z,99926.22
2022-12-14T22:24:06.395Z,99921.41
2022-12-14T22:26:33.503Z,99925.81
2022-12-14T22:28:59.808Z,99930.31
2022-12-14T22:31:26.271Z,99938.59
2022-12-14T22:33:54.898Z,99955.16
2022-12-14T22:36:22.259Z,99951.53
2022-12-14T22:38:48.963Z,99970.91
2022-12-14T22:41:16.349Z,99971.63
2022-12-14T22:43:43.988Z,99975.59
2022-12-14T22:46:12.871Z,99972.25
2022-12-14T22:48:39.635Z,99981.72
2022-12-14T22:51:10.123Z,99969.25
2022-12-14T22:53:37.465Z,99970.69
2022-12-14T22:56:11.261Z,99966.41
2022-12-14T22:58:39.516Z,99977.19
2022-12-14T23:01:05.808Z,99977.84
2022-12-14T23:03:32.619Z,99977.03
2022-12-14T23:06:02.287Z,99970.44
2022-12-14T23:08:28.829Z,99962.97
2022-12-14T23:11:13.982Z,99961.22
2022-12-14T23:13:58.768Z,99964.06
2022-12-14T23:16:43.505Z,99969.72
2022-12-14T23:19:35.117Z,99971.47
2022-12-14T23:22:19.755Z,99967.19
2022-12-14T23:25:04.585Z,99969.72
2022-12-14T23:27:49.342Z,99965.50
2022-12-14T23:30:34.084Z,99955.41
2022-12-14T23:33:18.842Z,99953.56
2022-12-14T23:36:03.512Z,99951.16
2022-12-14T23:38:48.298Z,99944.38
2022-12-14T23:41:33.109Z,99946.81
2022-12-14T23:44:17.945Z,99951.28
2022-12-14T23:47:02.497Z,99952.88
2022-12-14T23:49:47.354Z,99947.69
2022-12-14T23:52:32.161Z,99940.16
2022-12-14T23:55:16.994Z,99934.00
2022-12-14T23:58:01.706Z,99934.84
